Time;durP1;ratioP1;P1;durP2;ratioP2;P2;SDS_P1;SDS_P2;PMS_P1;PMS_P2;Temp;Humidity;BMP_temperature;BMP_pressure;BME280_temperature;BME280_humidity;BME280_pressure;Samples;Min_cycle;Max_cycle;Signal;HPM_P1;HPM_P2
2021/06/10 00:01:03;;;;;;;8.02;7.22;;;;;;;18.11;80.95;101656.09;6339789;28;20189;-75
2021/06/10 00:04:07;;;;;;;10.15;7.65;;;;;;;18.13;80.83;101664.94;6339650;28;20217;-75
2021/06/10 00:07:12;;;;;;;7.47;6.68;;;;;;;18.07;81.33;101660.44;6338281;28;20414;-75
2021/06/10 00:10:19;;;;;;;10.23;7.38;;;;;;;18.02;81.46;101660.34;6339593;28;20183;-75
2021/06/10 00:13:23;;;;;;;12.70;6.95;;;;;;;18.01;81.65;101666.94;6338450;28;20183;-75
2021/06/10 00:16:27;;;;;;;7.30;6.70;;;;;;;17.97;82.12;101658.31;6338130;28;20415;-75
2021/06/10 00:19:31;;;;;;;7.85;7.10;;;;;;;17.86;82.68;101659.19;6337965;28;20250;-75
2021/06/10 00:22:35;;;;;;;7.70;7.13;;;;;;;17.84;82.80;101660.53;6339406;28;20250;-75
2021/06/10 00:25:41;;;;;;;8.07;7.13;;;;;;;17.84;82.42;101660.53;6337763;28;20438;-75
2021/06/10 00:28:44;;;;;;;9.02;7.28;;;;;;;17.78;83.28;101673.38;6338779;28;20228;-75
2021/06/10 00:31:48;;;;;;;7.85;7.13;;;;;;;17.84;82.85;101664.13;6337064;28;20234;-75
2021/06/10 00:34:52;;;;;;;8.00;7.03;;;;;;;17.80;82.85;101667.59;6337327;28;20496;-75
2021/06/10 00:37:57;;;;;;;8.40;7.60;;;;;;;17.73;83.46;101670.50;6337479;28;20236;-75
2021/06/10 00:41:02;;;;;;;8.35;7.50;;;;;;;17.76;83.40;101674.69;6337943;28;20236;-75
2021/06/10 00:44:07;;;;;;;7.70;7.30;;;;;;;17.74;83.30;101671.34;6319879;28;20198;-74
2021/06/10 00:47:11;;;;;;;7.88;7.20;;;;;;;17.72;83.63;101684.56;6338462;28;20265;-75
2021/06/10 00:50:17;;;;;;;8.82;7.60;;;;;;;17.69;83.68;101674.00;6337355;28;20230;-75
2021/06/10 00:53:21;;;;;;;9.38;7.30;;;;;;;17.70;83.58;101670.16;6338228;28;20187;-75
2021/06/10 00:56:27;;;;;;;8.60;7.85;;;;;;;17.71;83.54;101671.84;6338542;28;20194;-75
2021/06/10 00:59:30;;;;;;;8.07;7.32;;;;;;;17.73;83.35;101675.19;6338165;28;20257;-75
2021/06/10 01:02:34;;;;;;;9.02;7.70;;;;;;;17.70;83.86;101675.66;6337165;28;20182;-75
2021/06/10 01:05:39;;;;;;;8.23;7.47;;;;;;;17.71;83.89;101678.19;6337937;28;20210;-75
2021/06/10 01:08:48;;;;;;;8.10;7.50;;;;;;;17.82;83.53;101679.25;6337856;28;20189;-75
2021/06/10 01:11:59;;;;;;;8.30;7.50;;;;;;;17.83;83.35;101670.72;6337973;28;20183;-75
2021/06/10 01:15:07;;;;;;;7.45;6.78;;;;;;;17.84;83.85;101672.41;6336739;28;20194;-75
2021/06/10 01:18:15;;;;;;;7.63;6.82;;;;;;;17.84;84.23;101674.31;6336613;28;20183;-75
2021/06/10 01:21:21;;;;;;;8.15;7.38;;;;;;;17.82;84.06;101679.25;6337966;28;20258;-75
2021/06/10 01:24:36;;;;;;;10.45;7.10;;;;;;;17.78;84.75;101678.03;6337473;28;20182;-75
2021/06/10 01:27:43;;;;;;;8.15;7.45;;;;;;;17.81;83.91;101672.03;6336547;28;20466;-75
2021/06/10 01:30:53;;;;;;;8.10;7.38;;;;;;;17.81;84.49;101683.94;6319098;28;20230;-75
2021/06/10 01:33:58;;;;;;;7.65;7.07;;;;;;;17.88;83.70;101673.59;6337218;28;20276;-75
2021/06/10 01:37:02;;;;;;;8.10;7.03;;;;;;;17.88;83.54;101678.25;6337763;28;20226;-75
2021/06/10 01:40:09;;;;;;;7.97;7.30;;;;;;;17.80;84.03;101678.63;6337041;28;20194;-75
2021/06/10 01:43:18;;;;;;;11.55;7.35;;;;;;;17.79;84.21;101674.22;6337118;28;20189;-75
2021/06/10 01:46:24;;;;;;;7.05;6.38;;;;;;;17.81;84.53;101683.94;6337551;28;20214;-75
2021/06/10 01:49:28;;;;;;;7.40;6.70;;;;;;;17.89;83.89;101688.22;6337312;28;20183;-75
2021/06/10 01:52:33;;;;;;;6.57;5.90;;;;;;;17.88;83.84;101684.63;6337257;28;20221;-75
2021/06/10 01:55:37;;;;;;;7.22;6.68;;;;;;;17.85;84.06;101690.63;6336544;28;20199;-75
2021/06/10 01:58:43;;;;;;;7.93;7.13;;;;;;;17.84;83.99;101682.59;6337539;28;20190;-74
2021/06/10 02:01:47;;;;;;;6.72;6.32;;;;;;;17.82;83.16;101684.78;6337183;28;20187;-75
2021/06/10 02:04:51;;;;;;;7.25;6.30;;;;;;;17.78;83.16;101678.03;6337421;28;20260;-75
2021/06/10 02:07:57;;;;;;;6.70;6.10;;;;;;;17.81;83.11;101688.59;6337102;28;20189;-75
2021/06/10 02:11:01;;;;;;;6.88;6.35;;;;;;;17.84;82.79;101682.59;6336067;28;20183;-75
2021/06/10 02:14:08;;;;;;;6.65;6.07;;;;;;;17.82;82.67;101688.34;6337441;28;20187;-75
2021/06/10 02:17:12;;;;;;;6.63;6.13;;;;;;;17.80;82.80;101681.41;6337140;28;20228;-75
2021/06/10 02:20:18;;;;;;;6.13;5.65;;;;;;;17.81;82.37;101683.09;6337319;28;20251;-75
2021/06/10 02:23:21;;;;;;;9.23;5.63;;;;;;;17.78;82.56;101676.13;6335898;28;20478;-75
2021/06/10 02:26:25;;;;;;;5.97;5.57;;;;;;;17.71;82.08;101693.91;6336864;28;20242;-75
2021/06/10 02:29:33;;;;;;;5.93;5.63;;;;;;;17.71;81.82;101682.88;6337288;28;20183;-74
2021/06/10 02:32:37;;;;;;;6.07;5.53;;;;;;;17.69;81.63;101687.81;6336066;28;20234;-75
2021/06/10 02:35:41;;;;;;;5.05;4.65;;;;;;;17.69;80.42;101685.03;6335782;28;20415;-75
2021/06/10 02:38:48;;;;;;;6.47;5.00;;;;;;;17.67;80.02;101692.75;6337174;28;20187;-75
2021/06/10 02:41:53;;;;;;;6.40;4.43;;;;;;;17.64;79.31;101688.50;6336169;28;20190;-75
2021/06/10 02:44:58;;;;;;;6.40;4.93;;;;;;;17.69;79.29;101691.41;6335852;28;20270;-75
2021/06/10 02:48:03;;;;;;;5.13;4.80;;;;;;;17.64;79.01;101693.22;6337194;28;20221;-75
2021/06/10 02:51:08;;;;;;;5.18;4.68;;;;;;;17.63;78.81;101692.38;6336693;28;20246;-75
2021/06/10 02:54:16;;;;;;;4.90;4.45;;;;;;;17.63;78.38;101686.84;6336661;28;20183;-75
2021/06/10 02:57:21;;;;;;;4.05;3.75;;;;;;;17.65;77.33;101689.34;6339541;28;20250;-75
2021/06/10 03:00:28;;;;;;;5.18;4.68;;;;;;;17.60;77.51;101692.00;6340596;28;20183;-75
2021/06/10 03:03:33;;;;;;;4.38;4.10;;;;;;;17.55;77.39;101684.47;6339828;28;20205;-74
2021/06/10 03:06:38;;;;;;;4.10;3.80;;;;;;;17.54;76.67;101681.97;6340823;28;20215;-75
2021/06/10 03:09:44;;;;;;;6.03;4.35;;;;;;;17.54;76.55;101687.47;6341315;28;20189;-74
2021/06/10 03:12:49;;;;;;;6.00;4.03;;;;;;;17.56;75.52;101686.16;6340817;28;20183;-75
2021/06/10 03:15:54;;;;;;;5.15;3.92;;;;;;;17.55;75.86;101689.97;6339596;28;20457;-75
2021/06/10 03:18:59;;;;;;;3.83;3.60;;;;;;;17.52;76.16;101691.31;6339506;28;20474;-75
2021/06/10 03:22:04;;;;;;;4.97;3.80;;;;;;;17.58;75.92;101683.13;6340766;28;20262;-75
2021/06/10 03:25:11;;;;;;;4.25;3.95;;;;;;;17.55;75.65;101678.94;6339341;28;20373;-75
2021/06/10 03:28:16;;;;;;;4.55;3.75;;;;;;;17.59;74.73;101684.81;6339289;28;20246;-75
2021/06/10 03:31:22;;;;;;;4.15;3.88;;;;;;;17.58;75.03;101677.63;6339125;28;20486;-75
2021/06/10 03:34:28;;;;;;;3.60;3.50;;;;;;;17.61;74.48;101680.75;6339121;28;20525;-75
2021/06/10 03:37:32;;;;;;;9.07;3.90;;;;;;;17.63;74.43;101680.50;6340595;28;20192;-75
2021/06/10 03:40:37;;;;;;;4.93;3.78;;;;;;;17.56;74.25;101679.78;6340077;28;20190;-75
2021/06/10 03:43:41;;;;;;;5.53;3.45;;;;;;;17.44;73.68;101669.56;6338868;28;20250;-75
2021/06/10 03:46:47;;;;;;;3.80;3.55;;;;;;;17.62;74.04;101667.75;6340143;28;20222;-75
2021/06/10 03:49:50;;;;;;;3.97;3.70;;;;;;;17.58;73.90;101667.44;6338684;28;20350;-75
2021/06/10 03:52:54;;;;;;;3.83;3.60;;;;;;;17.61;73.90;101671.63;6339935;28;20190;-75
2021/06/10 03:55:58;;;;;;;4.68;4.13;;;;;;;17.62;73.91;101667.75;6338613;28;20436;-74
2021/06/10 03:59:02;;;;;;;4.25;3.63;;;;;;;17.60;73.65;101664.41;6340078;28;20221;-75
2021/06/10 04:02:07;;;;;;;6.38;3.60;;;;;;;17.51;72.41;101662.00;6339413;28;20190;-75
2021/06/10 04:05:14;;;;;;;8.32;3.70;;;;;;;17.58;72.95;101644.50;6338362;28;20470;-75
2021/06/10 04:08:19;;;;;;;7.05;3.03;;;;;;;17.70;72.29;101664.63;6339085;28;20210;-75
2021/06/10 04:11:23;;;;;;;7.57;3.20;;;;;;;17.72;73.43;101673.53;6339556;28;20183;-76
2021/06/10 04:14:26;;;;;;;3.45;3.25;;;;;;;17.77;72.51;101668.09;6338317;28;20470;-75
2021/06/10 04:17:31;;;;;;;4.13;3.80;;;;;;;17.76;73.44;101660.91;6339366;28;20270;-76
2021/06/10 04:20:35;;;;;;;3.85;3.53;;;;;;;17.74;73.11;101671.34;6339051;28;20214;-76
2021/06/10 04:23:39;;;;;;;6.57;3.65;;;;;;;17.74;72.41;101665.84;6338957;28;20250;-75
2021/06/10 04:26:42;;;;;;;4.43;3.58;;;;;;;17.77;72.93;101663.41;6339184;28;20215;-76
2021/06/10 04:29:46;;;;;;;4.05;3.72;;;;;;;17.85;72.40;101665.78;6339058;28;20205;-76
2021/06/10 04:32:51;;;;;;;4.43;3.95;;;;;;;17.89;72.33;101668.91;6338920;28;20260;-75
2021/06/10 04:35:55;;;;;;;5.60;3.42;;;;;;;17.92;71.39;101658.19;6337541;28;20513;-75
2021/06/10 04:38:59;;;;;;;4.68;3.78;;;;;;;17.96;71.60;101664.06;6337459;28;20244;-75
2021/06/10 04:42:02;;;;;;;3.90;3.60;;;;;;;17.91;70.24;101663.97;6337829;28;20323;-75
2021/06/10 04:45:07;;;;;;;3.92;3.53;;;;;;;17.91;71.82;101673.09;6338487;28;20221;-75
2021/06/10 04:48:16;;;;;;;4.35;3.15;;;;;;;17.94;70.17;101660.72;6337342;28;20233;-75
2021/06/10 04:51:20;;;;;;;5.15;3.33;;;;;;;18.00;70.60;101659.75;6337340;28;20204;-75
2021/06/10 04:54:23;;;;;;;3.83;3.53;;;;;;;18.06;70.03;101659.59;6338313;28;20190;-76
2021/06/10 04:57:27;;;;;;;5.75;3.35;;;;;;;18.04;71.52;101656.25;6337176;28;20519;-75
2021/06/10 05:00:33;;;;;;;6.05;3.70;;;;;;;18.06;70.01;101664.28;6338142;28;20186;-75
2021/06/10 05:03:38;;;;;;;7.25;3.85;;;;;;;18.17;69.65;101655.09;6336980;28;20441;-75
2021/06/10 05:06:41;;;;;;;3.33;3.13;;;;;;;18.11;69.98;101656.09;6336894;28;20600;-75
2021/06/10 05:09:45;;;;;;;4.18;3.10;;;;;;;18.15;68.76;101651.75;6337863;28;20183;-75
2021/06/10 05:12:49;;;;;;;5.53;3.50;;;;;;;18.09;68.19;101650.81;6337605;28;20228;-75
2021/06/10 05:15:52;;;;;;;8.52;3.67;;;;;;;18.22;68.84;101655.19;6336560;28;20187;-76
2021/06/10 05:18:57;;;;;;;4.95;3.45;;;;;;;18.40;68.91;101649.44;6337183;28;20186;-75
2021/06/10 05:22:01;;;;;;;14.23;3.50;;;;;;;18.80;69.20;101643.78;6337117;28;20183;-76
2021/06/10 05:25:06;;;;;;;9.43;3.22;;;;;;;19.26;65.68;101648.94;6319412;28;20244;-75
2021/06/10 05:28:10;;;;;;;5.25;3.28;;;;;;;19.74;66.27;101645.47;6336441;28;20505;-75
2021/06/10 05:31:14;;;;;;;5.95;3.30;;;;;;;19.92;65.85;101647.91;6337556;28;20236;-75
2021/06/10 05:34:19;;;;;;;3.65;3.40;;;;;;;20.03;63.04;101648.03;6337903;28;20245;-75
2021/06/10 05:37:23;;;;;;;6.05;3.15;;;;;;;20.13;63.87;101648.13;6336462;28;20187;-75
2021/06/10 05:40:27;;;;;;;7.70;3.47;;;;;;;20.22;63.77;101652.09;6336336;28;20469;-76
2021/06/10 05:43:30;;;;;;;3.03;2.88;;;;;;;20.17;63.14;101649.28;6336153;28;20473;-75
2021/06/10 05:46:34;;;;;;;5.55;3.53;;;;;;;20.22;62.59;101647.41;6336965;28;20210;-75
2021/06/10 05:49:40;;;;;;;4.03;3.28;;;;;;;20.20;60.94;101659.84;6337205;28;20182;-75
2021/06/10 05:52:43;;;;;;;3.40;3.20;;;;;;;20.25;62.43;101660.78;6336142;28;20498;-76
2021/06/10 05:55:48;;;;;;;6.18;3.28;;;;;;;20.31;63.11;101656.94;6337656;28;20222;-75
2021/06/10 05:58:51;;;;;;;3.63;3.30;;;;;;;20.29;62.01;101658.28;6336968;28;20193;-75
2021/06/10 06:01:55;;;;;;;5.43;3.40;;;;;;;20.33;64.10;101653.91;6336333;28;20246;-75
2021/06/10 06:05:00;;;;;;;11.13;4.53;;;;;;;20.33;62.09;101648.38;6336139;28;20220;-75
2021/06/10 06:08:06;;;;;;;4.93;2.92;;;;;;;20.45;62.52;101651.81;6335870;28;20215;-75
2021/06/10 06:11:10;;;;;;;4.57;3.10;;;;;;;20.56;62.05;101648.03;6335694;28;20191;-75
2021/06/10 06:14:16;;;;;;;11.55;3.25;;;;;;;20.58;62.04;101640.28;6336737;28;20186;-75
2021/06/10 06:17:20;;;;;;;5.25;3.30;;;;;;;20.48;60.03;101641.03;6337031;28;20187;-75
2021/06/10 06:20:25;;;;;;;8.35;3.53;;;;;;;20.46;60.56;101647.94;6337019;28;20245;-75
2021/06/10 06:23:30;;;;;;;7.50;3.03;;;;;;;20.50;59.96;101649.09;6336185;28;20292;-74
2021/06/10 06:26:34;;;;;;;4.20;3.17;;;;;;;20.63;60.16;101648.66;6336303;28;20265;-74
2021/06/10 06:29:40;;;;;;;3.28;2.97;;;;;;;20.59;60.47;101641.97;6336209;28;20250;-75
2021/06/10 06:32:44;;;;;;;5.05;3.65;;;;;;;20.54;59.34;101639.16;6339776;28;20237;-74
2021/06/10 06:35:49;;;;;;;7.70;2.78;;;;;;;20.65;59.45;101652.00;6341368;28;20190;-75
2021/06/10 06:38:53;;;;;;;3.80;3.03;;;;;;;20.71;58.38;101650.94;6340947;28;20218;-75
2021/06/10 06:41:57;;;;;;;7.82;3.50;;;;;;;20.81;59.40;101651.03;6341091;28;20245;-75
2021/06/10 06:45:01;;;;;;;5.82;3.22;;;;;;;20.86;59.04;101648.28;6341498;28;20214;-74
2021/06/10 06:48:06;;;;;;;10.93;3.40;;;;;;;20.93;58.28;101653.63;6339776;28;20405;-74
2021/06/10 06:51:14;;;;;;;4.00;3.00;;;;;;;20.97;58.25;101661.16;6341409;28;20236;-74
2021/06/10 06:54:17;;;;;;;6.72;3.35;;;;;;;20.94;57.77;101667.22;6340898;28;20190;-74
2021/06/10 06:57:21;;;;;;;4.95;3.20;;;;;;;21.10;57.93;101660.72;6340773;28;20224;-74
2021/06/10 07:00:27;;;;;;;3.33;2.90;;;;;;;21.10;56.72;101671.81;6339899;28;20183;-74
2021/06/10 07:03:31;;;;;;;5.13;2.85;;;;;;;21.14;57.00;101672.09;6341004;28;20189;-75
2021/06/10 07:06:36;;;;;;;8.02;2.92;;;;;;;21.18;56.48;101662.97;6339662;28;20215;-75
2021/06/10 07:09:40;;;;;;;3.13;2.97;;;;;;;21.21;56.71;101662.44;6340697;28;20211;-75
2021/06/10 07:12:43;;;;;;;7.90;3.03;;;;;;;21.37;57.17;101677.25;6339810;28;20218;-75
2021/06/10 07:15:47;;;;;;;4.30;2.90;;;;;;;21.42;54.92;101662.56;6340213;28;20183;-75
2021/06/10 07:18:51;;;;;;;6.70;2.90;;;;;;;21.49;55.23;101668.72;6339289;28;20248;-75
2021/06/10 07:21:56;;;;;;;3.45;2.67;;;;;;;21.48;54.71;101667.03;6340473;28;20246;-75
2021/06/10 07:25:16;;;;;;;5.60;2.55;;;;;;;21.50;55.20;101675.94;6339892;28;20190;-75
2021/06/10 07:28:20;;;;;;;4.97;2.70;;;;;;;21.52;53.69;101673.75;6338978;28;20216;-75
2021/06/10 07:31:24;;;;;;;2.28;2.00;;;;;;;21.63;51.39;101669.91;6338960;28;20561;-75
2021/06/10 07:34:28;;;;;;;2.30;2.20;;;;;;;21.78;50.59;101678.28;6340001;28;20228;-76
2021/06/10 07:37:33;;;;;;;3.65;2.33;;;;;;;21.79;50.08;101669.72;6338786;28;20190;-75
2021/06/10 07:40:38;;;;;;;2.58;1.95;;;;;;;21.92;49.40;101679.50;6340060;28;20186;-75
2021/06/10 07:43:41;;;;;;;2.90;2.08;;;;;;;22.01;48.62;101683.41;6339297;28;20187;-74
2021/06/10 07:46:45;;;;;;;2.50;2.30;;;;;;;22.12;48.56;101678.72;6338633;28;20182;-74
2021/06/10 07:49:49;;;;;;;3.25;2.47;;;;;;;22.14;48.95;101682.91;6338320;28;20533;-76
2021/06/10 07:52:54;;;;;;;7.25;2.80;;;;;;;22.16;50.73;101685.44;6338446;28;20214;-74
2021/06/10 07:55:58;;;;;;;7.85;2.40;;;;;;;22.24;50.81;101688.50;6338302;28;20187;-75
2021/06/10 07:59:02;;;;;;;2.95;2.20;;;;;;;22.28;49.56;101686.84;6339541;28;20251;-74
2021/06/10 08:02:08;;;;;;;2.38;2.20;;;;;;;22.32;48.82;101685.19;6338429;28;20183;-75
2021/06/10 08:05:15;;;;;;;3.17;2.40;;;;;;;22.47;49.91;101683.56;6337882;28;20356;-75
2021/06/10 08:08:20;;;;;;;2.50;2.30;;;;;;;22.52;50.12;101694.69;6339119;28;20207;-75
2021/06/10 08:11:23;;;;;;;6.13;2.65;;;;;;;22.51;48.49;101681.88;6337748;28;20229;-75
2021/06/10 08:14:27;;;;;;;4.45;2.67;;;;;;;22.53;50.12;101699.13;6337974;28;20182;-75
2021/06/10 08:17:33;;;;;;;2.78;2.67;;;;;;;22.61;49.68;101693.00;6338895;28;20251;-76
2021/06/10 08:20:37;;;;;;;2.90;2.70;;;;;;;22.62;48.81;101689.13;6339060;28;20265;-75
2021/06/10 08:23:42;;;;;;;4.78;2.67;;;;;;;22.67;49.01;101680.81;6338737;28;20183;-75
2021/06/10 08:26:47;;;;;;;2.22;2.13;;;;;;;22.81;48.69;101681.94;6338002;28;20485;-75
2021/06/10 08:29:50;;;;;;;2.58;2.45;;;;;;;22.84;48.56;101686.94;6338402;28;20233;-76
2021/06/10 08:32:54;;;;;;;5.72;2.70;;;;;;;22.91;48.98;101693.06;6312592;28;20276;-75
2021/06/10 08:35:58;;;;;;;4.20;2.83;;;;;;;22.96;48.26;101690.28;6313170;28;20188;-75
2021/06/10 08:39:04;;;;;;;2.88;2.67;;;;;;;22.89;47.79;101689.72;6313521;28;20195;-75
2021/06/10 08:42:09;;;;;;;2.83;2.70;;;;;;;23.00;47.52;101696.97;6312359;28;20206;-76
2021/06/10 08:45:14;;;;;;;3.75;2.53;;;;;;;23.06;46.78;101699.47;6312146;28;20384;-75
2021/06/10 08:48:18;;;;;;;3.88;2.25;;;;;;;22.97;45.72;101692.78;6312976;28;20253;-75
2021/06/10 08:51:22;;;;;;;3.90;2.95;;;;;;;22.97;47.03;101692.78;6313009;28;20210;-75
2021/06/10 08:54:27;;;;;;;3.03;2.83;;;;;;;23.02;46.78;101694.72;6311644;28;20238;-76
2021/06/10 08:57:34;;;;;;;2.80;2.60;;;;;;;23.03;46.69;101690.84;6312755;28;20237;-75
2021/06/10 09:00:48;;;;;;;2.88;2.72;;;;;;;23.01;46.65;101690.28;6313125;28;20183;-75
2021/06/10 09:03:54;;;;;;;2.75;2.70;;;;;;;23.02;46.93;101683.59;6311554;28;20326;-75
2021/06/10 09:06:59;;;;;;;2.70;2.60;;;;;;;23.04;47.05;101687.78;6312999;28;20183;-76
2021/06/10 09:10:06;;;;;;;3.63;3.30;;;;;;;23.09;47.60;101689.72;6311232;28;20211;-75
2021/06/10 09:13:11;;;;;;;2.83;2.63;;;;;;;23.14;47.47;101689.72;6311400;28;20475;-75
2021/06/10 09:16:24;;;;;;;6.97;2.90;;;;;;;23.14;45.80;101692.50;6312680;28;20184;-75
2021/06/10 09:19:31;;;;;;;2.83;2.72;;;;;;;23.19;46.57;101681.34;6311409;28;20187;-75
2021/06/10 09:22:35;;;;;;;9.10;3.00;;;;;;;23.19;45.17;101684.13;6312435;28;20455;-75
2021/06/10 09:25:42;;;;;;;4.80;2.80;;;;;;;23.29;46.64;101688.88;6312525;28;20184;-75
2021/06/10 09:28:50;;;;;;;2.42;2.40;;;;;;;23.25;45.58;101683.03;6312031;28;20219;-75
2021/06/10 09:31:55;;;;;;;2.90;2.80;;;;;;;23.27;46.80;101691.91;6318264;28;20258;-76
2021/06/10 09:35:01;;;;;;;5.28;3.33;;;;;;;23.25;45.86;101679.41;6337190;28;20182;-75
2021/06/10 09:38:07;;;;;;;3.10;3.00;;;;;;;23.33;46.54;101679.66;6337366;28;20246;-75
2021/06/10 09:41:12;;;;;;;3.00;2.55;;;;;;;23.42;47.60;101683.56;6335929;28;20198;-76
2021/06/10 09:44:37;;;;;;;4.15;2.42;;;;;;;23.45;48.00;101683.00;6336996;28;20189;-75
2021/06/10 09:47:43;;;;;;;5.45;2.75;;;;;;;23.45;47.92;101671.88;6337022;28;20191;-74
2021/06/10 09:50:52;;;;;;;4.13;3.08;;;;;;;23.42;46.95;101683.56;6336041;28;20423;-74
2021/06/10 09:53:56;;;;;;;10.50;2.90;;;;;;;23.38;47.13;101682.47;6337030;28;20221;-74
2021/06/10 09:57:01;;;;;;;3.38;3.00;;;;;;;23.45;47.30;101685.78;6336856;28;20183;-74
2021/06/10 10:00:07;;;;;;;3.90;3.03;;;;;;;23.41;46.34;101676.34;6336951;28;20194;-75
2021/06/10 10:03:40;;;;;;;3.35;3.15;;;;;;;23.39;46.16;101684.16;6336724;28;20282;-76
2021/06/10 10:06:44;;;;;;;6.20;2.80;;;;;;;23.49;46.84;101684.13;6341596;28;20183;-75
2021/06/10 10:09:50;;;;;;;5.03;2.90;;;;;;;23.58;46.99;101676.84;6341011;28;20210;-76
2021/06/10 10:12:56;;;;;;;3.95;2.72;;;;;;;23.54;46.10;101681.31;6341713;28;20227;-76
2021/06/10 10:16:01;;;;;;;4.35;3.13;;;;;;;23.48;46.62;101676.88;6340541;28;20543;-75
2021/06/10 10:19:05;;;;;;;7.75;3.15;;;;;;;23.56;46.94;101679.09;6341645;28;20225;-75
2021/06/10 10:22:13;;;;;;;3.22;3.10;;;;;;;23.61;47.04;101676.28;6341600;28;20186;-75
2021/06/10 10:25:19;;;;;;;5.38;3.00;;;;;;;23.66;48.02;101667.91;6341524;28;20355;-75
2021/06/10 10:28:28;;;;;;;4.18;3.88;;;;;;;23.69;46.07;101677.66;6341079;28;20183;-75
2021/06/10 10:31:33;;;;;;;3.17;2.97;;;;;;;23.72;46.52;101665.94;6340062;28;20530;-75
2021/06/10 10:34:40;;;;;;;2.88;2.75;;;;;;;23.72;45.92;101676.25;6340115;28;20205;-75
2021/06/10 10:37:43;;;;;;;3.42;3.17;;;;;;;23.74;46.69;101674.00;6340353;28;20376;-75
2021/06/10 10:40:56;;;;;;;3.13;2.83;;;;;;;23.61;46.11;101667.94;6340334;28;20274;-75
2021/06/10 10:44:19;;;;;;;5.45;3.95;;;;;;;23.74;44.69;101672.06;6341328;28;20189;-75
2021/06/10 10:47:24;;;;;;;3.78;2.75;;;;;;;23.81;45.83;101671.72;6339767;28;20182;-75
2021/06/10 10:50:37;;;;;;;3.95;3.10;;;;;;;23.84;46.52;101673.97;6340934;28;20274;-75
2021/06/10 10:53:44;;;;;;;3.10;2.92;;;;;;;23.79;46.75;101676.75;6339644;28;20240;-75
2021/06/10 10:56:48;;;;;;;3.50;3.30;;;;;;;23.68;46.21;101665.66;6339928;28;20183;-75
2021/06/10 10:59:53;;;;;;;3.17;2.95;;;;;;;23.87;46.96;101657.50;6340945;28;20218;-75
2021/06/10 11:03:15;;;;;;;5.43;3.22;;;;;;;23.83;47.46;101661.97;6340875;28;20183;-75
2021/06/10 11:06:34;;;;;;;18.13;3.15;;;;;;;23.87;46.96;101667.81;6339764;28;20266;-75
2021/06/10 11:09:42;;;;;;;4.45;2.85;;;;;;;23.96;47.43;101657.75;6340790;28;20256;-74
2021/06/10 11:12:50;;;;;;;2.92;2.80;;;;;;;24.02;47.29;101653.81;6340358;28;20182;-75
2021/06/10 11:15:57;;;;;;;7.07;2.85;;;;;;;23.83;46.34;101655.59;6339955;28;20187;-74
2021/06/10 11:19:01;;;;;;;6.05;2.92;;;;;;;23.93;46.69;101650.81;6340396;28;20226;-74
2021/06/10 11:22:05;;;;;;;6.07;2.83;;;;;;;24.06;46.69;101655.72;6340261;28;20183;-75
2021/06/10 11:25:11;;;;;;;8.40;3.05;;;;;;;24.16;46.69;101654.88;6340205;28;20249;-75
2021/06/10 11:28:16;;;;;;;3.42;3.22;;;;;;;24.12;46.69;101653.78;6340200;28;20187;-75
2021/06/10 11:31:21;;;;;;;3.60;2.95;;;;;;;24.06;46.04;101666.06;6339629;28;20381;-75
2021/06/10 11:34:29;;;;;;;7.22;2.70;;;;;;;24.16;46.56;101643.75;6339881;28;20220;-75
2021/06/10 11:37:35;;;;;;;3.28;3.00;;;;;;;24.04;46.33;101645.97;6339978;28;20183;-75
2021/06/10 11:40:39;;;;;;;8.35;3.65;;;;;;;24.07;47.25;101642.63;6339809;28;20186;-74
2021/06/10 11:43:46;;;;;;;7.43;3.10;;;;;;;23.94;46.43;101648.81;6339553;28;20258;-75
2021/06/10 11:47:23;;;;;;;3.42;2.80;;;;;;;24.03;47.10;101645.16;6338811;28;20466;-75
2021/06/10 11:50:30;;;;;;;3.92;2.90;;;;;;;24.02;47.19;101637.91;6339858;28;20252;-75
2021/06/10 11:53:34;;;;;;;6.50;3.40;;;;;;;24.12;47.03;101643.47;6339907;28;20225;-75
2021/06/10 11:56:39;;;;;;;5.22;3.17;;;;;;;24.21;46.46;101632.56;6339860;28;20222;-75
2021/06/10 11:59:43;;;;;;;3.88;2.95;;;;;;;24.21;45.19;101640.91;6338309;28;20265;-75
2021/06/10 12:02:54;;;;;;;6.13;3.20;;;;;;;24.27;45.04;101617.44;6339350;28;20229;-75
2021/06/10 12:05:58;;;;;;;4.88;2.90;;;;;;;24.54;44.99;101631.75;6339139;28;20191;-75
2021/06/10 12:09:12;;;;;;;3.22;3.00;;;;;;;24.61;44.97;101629.44;6337874;28;20356;-74
2021/06/10 12:12:30;;;;;;;2.90;2.70;;;;;;;24.46;43.00;101621.22;6339479;28;20187;-75
2021/06/10 12:15:39;;;;;;;4.97;2.92;;;;;;;24.51;42.92;101618.38;6338073;28;20183;-74
2021/06/10 12:18:44;;;;;;;7.13;2.70;;;;;;;24.55;42.23;101641.75;6337772;28;20254;-76
2021/06/10 12:21:59;;;;;;;5.35;2.70;;;;;;;24.49;42.12;101642.94;6338878;28;20193;-75
2021/06/10 12:25:14;;;;;;;2.78;2.58;;;;;;;24.49;42.33;101625.38;6338988;28;20183;-75
2021/06/10 12:28:32;;;;;;;4.63;2.70;;;;;;;24.50;43.17;101621.47;6337554;28;20182;-75
2021/06/10 12:31:38;;;;;;;4.65;2.80;;;;;;;24.57;43.19;101633.97;6338223;28;20307;-75
2021/06/10 12:34:53;;;;;;;3.10;2.70;;;;;;;24.38;41.97;101618.19;6337737;28;20246;-76
2021/06/10 12:37:57;;;;;;;2.72;2.53;;;;;;;24.57;43.34;101625.59;6337098;28;20183;-74
2021/06/10 12:41:20;;;;;;;2.97;2.78;;;;;;;24.56;42.48;101621.13;6338839;28;20232;-75
2021/06/10 12:44:34;;;;;;;2.60;2.50;;;;;;;24.70;42.70;101622.09;6338214;28;20183;-75
2021/06/10 12:47:43;;;;;;;5.35;2.72;;;;;;;24.74;42.92;101620.41;6338113;28;20183;-75
2021/06/10 12:50:48;;;;;;;2.97;2.78;;;;;;;24.72;42.66;101619.88;6338075;28;20214;-75
2021/06/10 12:53:56;;;;;;;3.28;2.63;;;;;;;24.78;41.62;101613.16;6338189;28;20183;-75
2021/06/10 12:57:00;;;;;;;4.43;2.40;;;;;;;24.87;42.09;101616.97;6338035;28;20183;-74
2021/06/10 13:00:07;;;;;;;3.15;2.10;;;;;;;24.86;42.26;101615.31;6336651;28;20413;-74
2021/06/10 13:03:14;;;;;;;2.20;2.20;;;;;;;24.66;41.22;101612.66;6337102;28;20513;-75
2021/06/10 13:06:23;;;;;;;4.63;2.60;;;;;;;24.95;41.96;101606.28;6337690;28;20214;-74
2021/06/10 13:09:27;;;;;;;7.35;2.55;;;;;;;24.97;42.15;101609.63;6336287;28;20431;-74
2021/06/10 13:12:32;;;;;;;5.68;2.55;;;;;;;25.00;41.22;101620.19;6338014;28;20189;-75
2021/06/10 13:15:37;;;;;;;2.40;2.40;;;;;;;25.02;40.93;101603.97;6336546;28;20470;-74
2021/06/10 13:18:40;;;;;;;3.20;2.28;;;;;;;25.10;41.01;101608.94;6337214;28;20214;-74
2021/06/10 13:21:46;;;;;;;2.45;2.20;;;;;;;25.06;40.62;101608.72;6337553;28;20225;-75
2021/06/10 13:24:50;;;;;;;3.28;2.40;;;;;;;24.91;40.24;101605.22;6337354;28;20214;-75
2021/06/10 13:28:08;;;;;;;2.80;2.60;;;;;;;25.10;40.25;101603.34;6337484;28;20193;-75
2021/06/10 13:31:23;;;;;;;2.38;2.17;;;;;;;25.23;39.95;101603.47;6336169;28;20523;-75
2021/06/10 13:34:36;;;;;;;2.60;2.50;;;;;;;25.02;40.27;101601.19;6336012;28;20270;-75
2021/06/10 13:37:41;;;;;;;5.63;2.40;;;;;;;25.17;40.28;101599.06;6336929;28;20202;-75
2021/06/10 13:40:44;;;;;;;3.83;2.22;;;;;;;25.35;40.80;101595.50;6337145;28;20218;-75
2021/06/10 13:43:48;;;;;;;3.58;2.65;;;;;;;25.52;41.63;101588.66;6336964;28;20190;-75
2021/06/10 13:46:53;;;;;;;4.57;2.40;;;;;;;25.65;41.73;101583.19;6335905;28;20560;-75
2021/06/10 13:50:00;;;;;;;2.10;2.10;;;;;;;25.49;39.00;101585.34;6335573;28;20553;-74
2021/06/10 13:53:07;;;;;;;2.83;2.47;;;;;;;25.50;39.23;101586.13;6336442;28;20186;-75
2021/06/10 13:56:14;;;;;;;2.13;2.13;;;;;;;25.53;39.92;101579.97;6335647;28;20409;-75
2021/06/10 13:59:17;;;;;;;4.28;2.40;;;;;;;25.82;39.03;101577.06;6335894;28;20190;-75
2021/06/10 14:02:21;;;;;;;2.72;2.40;;;;;;;25.75;39.09;101587.78;6336636;28;20186;-75
2021/06/10 14:05:25;;;;;;;2.53;2.15;;;;;;;25.62;38.35;101578.19;6336402;28;20183;-75
2021/06/10 14:08:32;;;;;;;2.42;2.13;;;;;;;25.69;38.36;101581.44;6336708;28;20190;-75
2021/06/10 14:11:35;;;;;;;2.30;2.13;;;;;;;25.89;41.12;101583.94;6335383;28;20210;-74
2021/06/10 14:14:40;;;;;;;2.53;2.13;;;;;;;25.81;40.29;101579.00;6335956;28;20293;-75
2021/06/10 14:17:43;;;;;;;3.42;2.10;;;;;;;25.85;39.53;101577.31;6336091;28;20183;-74
2021/06/10 14:20:47;;;;;;;2.47;1.90;;;;;;;25.82;38.21;101577.91;6336143;28;20187;-75
2021/06/10 14:23:53;;;;;;;2.05;1.70;;;;;;;25.82;38.73;101572.31;6336529;28;20222;-75